Time;durP1;ratioP1;P1;durP2;ratioP2;P2;SDS_P1;SDS_P2;PMS_P1;PMS_P2;Temp;Humidity;BMP_temperature;BMP_pressure;BME280_temperature;BME280_humidity;BME280_pressure;Samples;Min_cycle;Max_cycle;Signal;HPM_P1;HPM_P2
2022/01/05 00:01:19;;;;;;;1.50;0.70;;;;;;;;;;5051805;28;20021;-54
2022/01/05 00:03:45;;;;;;;0.85;0.47;;;;;;;;;;5033931;28;20045;-56
2022/01/05 00:06:11;;;;;;;0.98;0.40;;;;;;;;;;5033943;28;20056;-53
2022/01/05 00:08:37;;;;;;;1.05;0.57;;;;;;;;;;5033148;28;20567;-55
2022/01/05 00:11:03;;;;;;;0.40;0.20;;;;;;;;;;5033690;28;20391;-55
2022/01/05 00:13:29;;;;;;;0.60;0.30;;;;;;;;;;5052775;28;20437;-56
2022/01/05 00:15:55;;;;;;;2.80;0.47;;;;;;;;;;5053423;28;20446;-55
2022/01/05 00:18:21;;;;;;;1.60;0.30;;;;;;;;;;5052999;28;20029;-53
2022/01/05 00:20:47;;;;;;;0.80;0.60;;;;;;;;;;5053426;28;20056;-54
2022/01/05 00:23:13;;;;;;;0.40;0.20;;;;;;;;;;5053265;28;20036;-53
2022/01/05 00:25:39;;;;;;;0.85;0.40;;;;;;;;;;5053375;28;20228;-53
2022/01/05 00:28:05;;;;;;;0.50;0.20;;;;;;;;;;5052537;28;20478;-54
2022/01/05 00:30:31;;;;;;;1.42;0.50;;;;;;;;;;5053375;28;20369;-54
2022/01/05 00:32:57;;;;;;;1.23;0.60;;;;;;;;;;5053217;28;20139;-56
2022/01/05 00:35:23;;;;;;;0.82;0.45;;;;;;;;;;5053116;28;20494;-54
2022/01/05 00:37:49;;;;;;;0.50;0.20;;;;;;;;;;5052613;28;20029;-56
2022/01/05 00:40:15;;;;;;;0.73;0.43;;;;;;;;;;5053504;28;20413;-56
2022/01/05 00:42:41;;;;;;;0.57;0.28;;;;;;;;;;5053034;28;20390;-55
2022/01/05 00:45:07;;;;;;;1.08;0.52;;;;;;;;;;5052787;28;20025;-53
2022/01/05 00:47:33;;;;;;;1.08;0.50;;;;;;;;;;5052654;28;20021;-55
2022/01/05 00:49:59;;;;;;;0.70;0.38;;;;;;;;;;5052305;28;20086;-55
2022/01/05 00:52:25;;;;;;;0.80;0.40;;;;;;;;;;5052736;28;20068;-54
2022/01/05 00:54:51;;;;;;;0.70;0.50;;;;;;;;;;5052036;28;20061;-52
2022/01/05 00:57:17;;;;;;;0.65;0.38;;;;;;;;;;5052748;28;20033;-52
2022/01/05 00:59:43;;;;;;;0.60;0.30;;;;;;;;;;5051679;28;20423;-55
2022/01/05 01:02:09;;;;;;;0.65;0.17;;;;;;;;;;5044206;28;20068;-54
2022/01/05 01:04:35;;;;;;;0.47;0.20;;;;;;;;;;5032915;28;20167;-55
2022/01/05 01:07:01;;;;;;;0.30;0.15;;;;;;;;;;5032829;28;20105;-56
2022/01/05 01:09:27;;;;;;;0.28;0.10;;;;;;;;;;5032002;28;20026;-56
2022/01/05 01:11:53;;;;;;;0.20;0.10;;;;;;;;;;5038441;28;20035;-54
2022/01/05 01:14:19;;;;;;;0.28;0.10;;;;;;;;;;5052260;28;20326;-54
2022/01/05 01:16:45;;;;;;;0.20;0.10;;;;;;;;;;5052571;28;20029;-54
2022/01/05 01:19:11;;;;;;;0.10;0.10;;;;;;;;;;5051594;28;20382;-53
2022/01/05 01:21:38;;;;;;;0.10;0.10;;;;;;;;;;5052361;28;20087;-52
2022/01/05 01:24:04;;;;;;;0.20;0.10;;;;;;;;;;5052215;28;20032;-56
2022/01/05 01:26:31;;;;;;;0.77;0.30;;;;;;;;;;5052318;28;20031;-54
2022/01/05 01:28:58;;;;;;;0.10;0.10;;;;;;;;;;5051417;28;20113;-55
2022/01/05 01:31:24;;;;;;;0.10;0.10;;;;;;;;;;5052314;28;20086;-52
2022/01/05 01:33:50;;;;;;;0.08;0.00;;;;;;;;;;5051910;28;20087;-56
2022/01/05 01:36:16;;;;;;;0.55;0.32;;;;;;;;;;5052576;28;20033;-54
2022/01/05 01:38:43;;;;;;;0.00;0.00;;;;;;;;;;5051852;28;20029;-55
2022/01/05 01:41:09;;;;;;;0.45;0.15;;;;;;;;;;5052004;28;20119;-55
2022/01/05 01:43:36;;;;;;;0.30;0.17;;;;;;;;;;5051922;28;20056;-56
2022/01/05 01:46:03;;;;;;;0.88;0.32;;;;;;;;;;5052024;28;20029;-52
2022/01/05 01:48:29;;;;;;;0.05;0.05;;;;;;;;;;5051528;28;20394;-54
2022/01/05 01:50:54;;;;;;;0.47;0.20;;;;;;;;;;5052010;28;20051;-53
2022/01/05 01:53:20;;;;;;;0.38;0.25;;;;;;;;;;5052120;28;20048;-54
2022/01/05 01:55:48;;;;;;;0.20;0.10;;;;;;;;;;5051855;28;20039;-52
2022/01/05 01:58:14;;;;;;;0.35;0.20;;;;;;;;;;5051149;28;20364;-51
2022/01/05 02:00:40;;;;;;;1.42;0.20;;;;;;;;;;5051792;28;20387;-55
2022/01/05 02:03:06;;;;;;;0.15;0.10;;;;;;;;;;5035610;28;20025;-55
2022/01/05 02:05:32;;;;;;;0.30;0.13;;;;;;;;;;5031918;28;20383;-56
2022/01/05 02:07:58;;;;;;;0.60;0.28;;;;;;;;;;5035340;28;20029;-56
2022/01/05 02:10:24;;;;;;;0.20;0.10;;;;;;;;;;5035719;28;20029;-54
2022/01/05 02:12:50;;;;;;;0.05;0.00;;;;;;;;;;5049791;28;20363;-52
2022/01/05 02:15:16;;;;;;;0.10;0.03;;;;;;;;;;5055774;28;20490;-54
2022/01/05 02:18:08;;;;;;;0.00;0.00;;;;;;;;;;5055552;28;20029;-57
2022/01/05 02:20:35;;;;;;;0.00;0.00;;;;;;;;;;5055737;28;20036;-55
2022/01/05 02:23:01;;;;;;;0.70;0.20;;;;;;;;;;5055487;28;20029;-56
2022/01/05 02:25:27;;;;;;;0.63;0.28;;;;;;;;;;5055729;28;20032;-56
2022/01/05 02:27:55;;;;;;;0.88;0.25;;;;;;;;;;5055011;28;20481;-56
2022/01/05 02:30:26;;;;;;;0.22;0.10;;;;;;;;;;5055471;28;20131;-56
2022/01/05 02:32:52;;;;;;;0.32;0.10;;;;;;;;;;5055787;28;20073;-54
2022/01/05 02:35:18;;;;;;;0.08;0.08;;;;;;;;;;5055390;28;20434;-52
2022/01/05 02:37:45;;;;;;;0.00;0.00;;;;;;;;;;5055004;28;20032;-55
2022/01/05 02:40:12;;;;;;;0.35;0.20;;;;;;;;;;5055410;28;20051;-56
2022/01/05 02:42:38;;;;;;;0.00;0.00;;;;;;;;;;5055475;28;20228;-53
2022/01/05 02:45:05;;;;;;;0.30;0.20;;;;;;;;;;5055341;28;20036;-56
2022/01/05 02:47:30;;;;;;;0.52;0.20;;;;;;;;;;5055187;28;20102;-54
2022/01/05 02:50:00;;;;;;;0.73;0.20;;;;;;;;;;5054568;28;20543;-53
2022/01/05 02:52:26;;;;;;;0.20;0.17;;;;;;;;;;5054908;28;20453;-53
2022/01/05 02:54:52;;;;;;;0.63;0.40;;;;;;;;;;5055357;28;20037;-53
2022/01/05 02:57:18;;;;;;;0.68;0.22;;;;;;;;;;5055004;28;20391;-56
2022/01/05 02:59:44;;;;;;;0.28;0.10;;;;;;;;;;5054007;28;20473;-55
2022/01/05 03:02:11;;;;;;;0.47;0.30;;;;;;;;;;5046299;28;20114;-56
2022/01/05 03:04:36;;;;;;;0.17;0.10;;;;;;;;;;5034598;28;20297;-54
2022/01/05 03:07:02;;;;;;;0.30;0.15;;;;;;;;;;5035057;28;20055;-53
2022/01/05 03:09:28;;;;;;;0.32;0.10;;;;;;;;;;5034371;28;20033;-54
2022/01/05 03:11:54;;;;;;;0.03;0.00;;;;;;;;;;5040902;28;20029;-55
2022/01/05 03:14:21;;;;;;;0.52;0.20;;;;;;;;;;5054719;28;20029;-53
2022/01/05 03:16:47;;;;;;;0.88;0.35;;;;;;;;;;5054535;28;20025;-54
2022/01/05 03:19:13;;;;;;;0.28;0.10;;;;;;;;;;5053135;28;20370;-53
2022/01/05 03:21:39;;;;;;;1.23;0.20;;;;;;;;;;5054736;28;20037;-56
2022/01/05 03:24:05;;;;;;;0.05;0.00;;;;;;;;;;5054396;28;20475;-54
2022/01/05 03:26:31;;;;;;;0.10;0.00;;;;;;;;;;5054516;28;20028;-53
2022/01/05 03:28:57;;;;;;;0.20;0.10;;;;;;;;;;5053840;28;20025;-54
2022/01/05 03:31:23;;;;;;;0.22;0.10;;;;;;;;;;5054583;28;20060;-56
2022/01/05 03:33:49;;;;;;;0.20;0.10;;;;;;;;;;5054270;28;20033;-52
2022/01/05 03:36:15;;;;;;;0.00;0.00;;;;;;;;;;5054238;28;20017;-52
2022/01/05 03:38:41;;;;;;;0.22;0.10;;;;;;;;;;5054289;28;20154;-54
2022/01/05 03:41:07;;;;;;;0.03;0.00;;;;;;;;;;5054510;28;20470;-52
2022/01/05 03:43:33;;;;;;;0.35;0.20;;;;;;;;;;5054150;28;20029;-55
2022/01/05 03:45:59;;;;;;;0.85;0.20;;;;;;;;;;5053870;28;20371;-54
2022/01/05 03:48:25;;;;;;;0.08;0.00;;;;;;;;;;5053288;28;20562;-56
2022/01/05 03:50:51;;;;;;;0.17;0.10;;;;;;;;;;5053871;28;20120;-54
2022/01/05 03:53:17;;;;;;;0.10;0.00;;;;;;;;;;5054107;28;20024;-53
2022/01/05 03:55:44;;;;;;;0.28;0.20;;;;;;;;;;5053850;28;20083;-53
2022/01/05 03:58:10;;;;;;;0.13;0.10;;;;;;;;;;5053332;28;20048;-50
2022/01/05 04:00:45;;;;;;;0.20;0.10;;;;;;;;;;5053664;28;20025;-56
2022/01/05 04:03:11;;;;;;;0.43;0.20;;;;;;;;;;5036677;28;20356;-56
2022/01/05 04:05:37;;;;;;;0.00;0.00;;;;;;;;;;5033813;28;20152;-54
2022/01/05 04:08:04;;;;;;;0.00;0.00;;;;;;;;;;5033390;28;20034;-56
2022/01/05 04:10:30;;;;;;;0.25;0.10;;;;;;;;;;5033812;28;20100;-56
2022/01/05 04:12:56;;;;;;;0.00;0.00;;;;;;;;;;5048152;28;20040;-56
2022/01/05 04:15:22;;;;;;;0.20;0.13;;;;;;;;;;5053518;28;20021;-55
2022/01/05 04:17:48;;;;;;;0.00;0.00;;;;;;;;;;5052717;28;20116;-51
2022/01/05 04:20:15;;;;;;;0.05;0.05;;;;;;;;;;5053667;28;20104;-54
2022/01/05 04:22:41;;;;;;;0.03;0.03;;;;;;;;;;5053340;28;20067;-56
2022/01/05 04:25:07;;;;;;;0.15;0.05;;;;;;;;;;5053424;28;20378;-54
2022/01/05 04:27:33;;;;;;;0.00;0.00;;;;;;;;;;5053218;28;20490;-55
2022/01/05 04:29:59;;;;;;;0.20;0.00;;;;;;;;;;5050224;28;20131;-52
2022/01/05 04:32:25;;;;;;;0.00;0.00;;;;;;;;;;5047857;28;20021;-55
2022/01/05 04:34:51;;;;;;;0.10;0.00;;;;;;;;;;5053475;28;20036;-54
2022/01/05 04:37:19;;;;;;;0.30;0.10;;;;;;;;;;5053159;28;20025;-54
2022/01/05 04:39:45;;;;;;;0.13;0.00;;;;;;;;;;5052371;28;20605;-55
2022/01/05 04:42:11;;;;;;;0.00;0.00;;;;;;;;;;5052982;28;20029;-56
2022/01/05 04:44:37;;;;;;;0.32;0.10;;;;;;;;;;5053013;28;20025;-54
2022/01/05 04:47:04;;;;;;;0.05;0.05;;;;;;;;;;5050821;28;20082;-55
2022/01/05 04:49:30;;;;;;;0.00;0.00;;;;;;;;;;5052321;28;20033;-55
2022/01/05 04:51:56;;;;;;;0.05;0.00;;;;;;;;;;5051291;28;20028;-56
2022/01/05 04:54:22;;;;;;;0.00;0.00;;;;;;;;;;5053145;28;20390;-56
2022/01/05 04:56:48;;;;;;;0.03;0.00;;;;;;;;;;5052799;28;20029;-55
2022/01/05 04:59:14;;;;;;;0.20;0.10;;;;;;;;;;5052119;28;20490;-56
2022/01/05 05:01:40;;;;;;;0.00;0.00;;;;;;;;;;5048341;28;20026;-55
2022/01/05 05:04:06;;;;;;;0.10;0.00;;;;;;;;;;5032958;28;20420;-54
2022/01/05 05:06:31;;;;;;;0.50;0.13;;;;;;;;;;5032837;28;20044;-54
2022/01/05 05:08:57;;;;;;;0.40;0.20;;;;;;;;;;5031959;28;20029;-56
2022/01/05 05:11:23;;;;;;;0.20;0.10;;;;;;;;;;5034476;28;20033;-56
2022/01/05 05:13:49;;;;;;;0.20;0.10;;;;;;;;;;5052341;28;20029;-56
2022/01/05 05:16:15;;;;;;;0.00;0.00;;;;;;;;;;5052788;28;20089;-55
2022/01/05 05:18:41;;;;;;;0.30;0.20;;;;;;;;;;5051969;28;20466;-56
2022/01/05 05:21:07;;;;;;;0.20;0.10;;;;;;;;;;5052644;28;20028;-52
2022/01/05 05:23:33;;;;;;;1.35;0.40;;;;;;;;;;5052245;28;20020;-50
2022/01/05 05:25:59;;;;;;;0.47;0.22;;;;;;;;;;5052388;28;20121;-54
2022/01/05 05:28:25;;;;;;;0.08;0.00;;;;;;;;;;5051528;28;20029;-53
2022/01/05 05:30:51;;;;;;;2.25;0.38;;;;;;;;;;5052467;28;20025;-54
2022/01/05 05:33:17;;;;;;;0.40;0.30;;;;;;;;;;5052369;28;20035;-54
2022/01/05 05:35:43;;;;;;;0.70;0.35;;;;;;;;;;5052317;28;20090;-53
2022/01/05 05:38:11;;;;;;;0.52;0.35;;;;;;;;;;5051399;28;20079;-54
2022/01/05 05:40:37;;;;;;;0.55;0.40;;;;;;;;;;5051819;28;20029;-52
2022/01/05 05:43:03;;;;;;;0.65;0.30;;;;;;;;;;5051900;28;20359;-54
2022/01/05 05:45:29;;;;;;;0.82;0.47;;;;;;;;;;5052196;28;20029;-54
2022/01/05 05:47:55;;;;;;;0.88;0.43;;;;;;;;;;5051539;28;20032;-53
2022/01/05 05:50:21;;;;;;;0.63;0.40;;;;;;;;;;5052190;28;20031;-56
2022/01/05 05:52:47;;;;;;;1.33;0.63;;;;;;;;;;5051880;28;20467;-53
2022/01/05 05:55:13;;;;;;;0.73;0.40;;;;;;;;;;5052088;28;20033;-52
2022/01/05 05:57:39;;;;;;;0.60;0.43;;;;;;;;;;5051769;28;20151;-56
2022/01/05 06:00:06;;;;;;;0.63;0.30;;;;;;;;;;5051497;28;20017;-55
2022/01/05 06:02:32;;;;;;;0.83;0.40;;;;;;;;;;5040459;28;20061;-50
2022/01/05 06:04:58;;;;;;;0.73;0.50;;;;;;;;;;5032060;28;20426;-54
2022/01/05 06:07:24;;;;;;;1.40;0.73;;;;;;;;;;5032055;28;20029;-51
2022/01/05 06:09:50;;;;;;;0.43;0.20;;;;;;;;;;5031329;28;20045;-51
2022/01/05 06:12:16;;;;;;;1.10;0.57;;;;;;;;;;5040734;28;20033;-54
2022/01/05 06:14:42;;;;;;;1.30;0.63;;;;;;;;;;5051867;28;20147;-55
2022/01/05 06:17:08;;;;;;;0.67;0.40;;;;;;;;;;5052071;28;20474;-53
2022/01/05 06:19:34;;;;;;;3.47;1.20;;;;;;;;;;5051527;28;20021;-54
2022/01/05 06:22:00;;;;;;;1.00;0.50;;;;;;;;;;5051730;28;20036;-52
2022/01/05 06:24:26;;;;;;;1.30;0.80;;;;;;;;;;5051497;28;20025;-54
2022/01/05 06:26:55;;;;;;;1.13;0.70;;;;;;;;;;5051624;28;20425;-54
2022/01/05 06:29:21;;;;;;;0.90;0.57;;;;;;;;;;5050977;28;20437;-53
2022/01/05 06:31:47;;;;;;;3.43;0.90;;;;;;;;;;5051598;28;20033;-56
2022/01/05 06:34:13;;;;;;;2.33;1.23;;;;;;;;;;5051730;28;20048;-51
2022/01/05 06:36:39;;;;;;;0.85;0.52;;;;;;;;;;5051751;28;20432;-51
2022/01/05 06:39:05;;;;;;;1.40;0.87;;;;;;;;;;5050686;28;20164;-56
2022/01/05 06:41:31;;;;;;;1.47;0.87;;;;;;;;;;5051524;28;20104;-51
2022/01/05 06:43:57;;;;;;;1.77;0.90;;;;;;;;;;5051759;28;20471;-52
2022/01/05 06:46:23;;;;;;;1.05;0.65;;;;;;;;;;5051725;28;20031;-53
2022/01/05 06:48:49;;;;;;;1.70;0.90;;;;;;;;;;5050882;28;20379;-55
2022/01/05 06:51:15;;;;;;;1.03;0.77;;;;;;;;;;5051557;28;20055;-56
2022/01/05 06:53:41;;;;;;;1.43;0.70;;;;;;;;;;5053108;28;20096;-55
2022/01/05 06:56:07;;;;;;;5.57;1.30;;;;;;;;;;5054795;28;20524;-52
2022/01/05 06:58:34;;;;;;;1.60;0.70;;;;;;;;;;5054529;28;20025;-56
2022/01/05 07:01:00;;;;;;;1.70;1.10;;;;;;;;;;5055088;28;20363;-57
2022/01/05 07:03:26;;;;;;;0.98;0.52;;;;;;;;;;5036052;28;20025;-55
2022/01/05 07:05:51;;;;;;;1.87;1.20;;;;;;;;;;5035123;28;20444;-55
2022/01/05 07:08:19;;;;;;;1.60;1.00;;;;;;;;;;5034231;28;20017;-55
2022/01/05 07:10:45;;;;;;;3.38;1.17;;;;;;;;;;5034559;28;20037;-57
2022/01/05 07:13:11;;;;;;;1.57;0.80;;;;;;;;;;5051587;28;20029;-56
2022/01/05 07:15:37;;;;;;;2.13;0.90;;;;;;;;;;5054995;28;20033;-53
2022/01/05 07:18:03;;;;;;;1.35;0.60;;;;;;;;;;5054149;28;20059;-55
2022/01/05 07:20:29;;;;;;;1.93;1.33;;;;;;;;;;5054674;28;20093;-55
2022/01/05 07:22:55;;;;;;;1.50;0.73;;;;;;;;;;5054398;28;20036;-55
2022/01/05 07:25:21;;;;;;;0.75;0.52;;;;;;;;;;5054413;28;20025;-51
2022/01/05 07:27:47;;;;;;;1.33;0.45;;;;;;;;;;5054031;28;20175;-57
2022/01/05 07:30:13;;;;;;;1.08;0.70;;;;;;;;;;5054576;28;20029;-55
2022/01/05 07:32:40;;;;;;;1.08;0.93;;;;;;;;;;5052384;28;20028;-56
2022/01/05 07:35:06;;;;;;;0.87;0.50;;;;;;;;;;5054515;28;20501;-51
2022/01/05 07:37:32;;;;;;;1.27;0.63;;;;;;;;;;5054172;28;20028;-54
2022/01/05 07:39:58;;;;;;;1.53;0.97;;;;;;;;;;5053814;28;20021;-54
2022/01/05 07:42:24;;;;;;;1.93;0.87;;;;;;;;;;5053995;28;20063;-53
2022/01/05 07:44:51;;;;;;;1.92;1.20;;;;;;;;;;5054180;28;20029;-52
2022/01/05 07:47:16;;;;;;;1.20;0.70;;;;;;;;;;5054199;28;20108;-52
2022/01/05 07:49:42;;;;;;;1.27;0.77;;;;;;;;;;5053504;28;20052;-52
2022/01/05 07:52:08;;;;;;;1.83;1.27;;;;;;;;;;5053937;28;20039;-50
2022/01/05 07:54:35;;;;;;;1.23;0.77;;;;;;;;;;5053857;28;20037;-53
2022/01/05 07:57:01;;;;;;;2.03;0.93;;;;;;;;;;5053945;28;20496;-50
2022/01/05 07:59:27;;;;;;;2.17;1.33;;;;;;;;;;5053271;28;20086;-53
2022/01/05 08:01:53;;;;;;;3.03;1.83;;;;;;;;;;5047373;28;20033;-54
2022/01/05 08:04:19;;;;;;;3.30;1.90;;;;;;;;;;5033576;28;20021;-53
2022/01/05 08:06:45;;;;;;;2.23;1.30;;;;;;;;;;5033705;28;20032;-54
2022/01/05 08:09:11;;;;;;;3.97;2.23;;;;;;;;;;5033552;28;20367;-55
2022/01/05 08:11:37;;;;;;;5.87;1.77;;;;;;;;;;5037300;28;20032;-52
2022/01/05 08:14:03;;;;;;;2.60;1.43;;;;;;;;;;5053579;28;20021;-55
2022/01/05 08:16:29;;;;;;;4.13;2.30;;;;;;;;;;5053653;28;20025;-56
2022/01/05 08:18:55;;;;;;;2.90;1.77;;;;;;;;;;5052997;28;20075;-55
2022/01/05 08:21:22;;;;;;;3.33;2.10;;;;;;;;;;5053315;28;20029;-52
2022/01/05 08:23:48;;;;;;;4.97;2.20;;;;;;;;;;5053510;28;20035;-54
2022/01/05 08:26:15;;;;;;;3.23;1.87;;;;;;;;;;5053377;28;20025;-54
2022/01/05 08:28:41;;;;;;;12.55;4.43;;;;;;;;;;5052817;28;20029;-56
2022/01/05 08:31:07;;;;;;;6.20;1.70;;;;;;;;;;5050767;28;20048;-51
2022/01/05 08:33:34;;;;;;;1.87;1.67;;;;;;;;;;5053310;28;20068;-55
2022/01/05 08:36:02;;;;;;;6.10;1.73;;;;;;;;;;5052816;28;20415;-56
2022/01/05 08:38:28;;;;;;;2.40;1.33;;;;;;;;;;5052638;28;20040;-53
2022/01/05 08:40:53;;;;;;;6.50;2.50;;;;;;;;;;5053080;28;20025;-54
2022/01/05 08:43:19;;;;;;;10.13;3.07;;;;;;;;;;5052953;28;20115;-54
2022/01/05 08:45:45;;;;;;;3.07;2.27;;;;;;;;;;5053035;28;20032;-51
2022/01/05 08:48:12;;;;;;;2.47;1.63;;;;;;;;;;5052217;28;20033;-51
2022/01/05 08:50:38;;;;;;;7.50;2.23;;;;;;;;;;5052560;28;20267;-54
2022/01/05 08:53:05;;;;;;;3.97;1.80;;;;;;;;;;5052946;28;20029;-55
2022/01/05 08:55:33;;;;;;;4.47;2.27;;;;;;;;;;5052837;28;20098;-52
2022/01/05 08:57:59;;;;;;;3.17;1.63;;;;;;;;;;5051871;28;20029;-52
2022/01/05 09:00:26;;;;;;;6.50;2.10;;;;;;;;;;5052802;28;20123;-56
2022/01/05 09:02:52;;;;;;;1.97;1.27;;;;;;;;;;5038223;28;20434;-51
2022/01/05 09:05:18;;;;;;;3.87;2.10;;;;;;;;;;5033066;28;20025;-50
2022/01/05 09:07:44;;;;;;;3.27;1.90;;;;;;;;;;5032404;28;20037;-56
2022/01/05 09:10:11;;;;;;;4.90;2.10;;;;;;;;;;5032213;28;20105;-51
2022/01/05 09:12:37;;;;;;;2.43;1.50;;;;;;;;;;5044360;28;20033;-54
2022/01/05 09:15:04;;;;;;;2.43;1.73;;;;;;;;;;5052279;28;20083;-53
2022/01/05 09:17:30;;;;;;;5.33;1.83;;;;;;;;;;5051866;28;20418;-55
2022/01/05 09:19:56;;;;;;;3.07;1.80;;;;;;;;;;5051850;28;20052;-53
2022/01/05 09:22:23;;;;;;;4.50;1.80;;;;;;;;;;5052455;28;20025;-55
2022/01/05 09:24:49;;;;;;;1.90;1.07;;;;;;;;;;5052290;28;20029;-56
2022/01/05 09:27:16;;;;;;;2.00;1.00;;;;;;;;;;5052166;28;20463;-53
2022/01/05 09:29:42;;;;;;;3.90;2.75;;;;;;;;;;5051392;28;20051;-50
2022/01/05 09:32:09;;;;;;;6.88;2.15;;;;;;;;;;5051954;28;20033;-54
2022/01/05 09:34:36;;;;;;;2.87;1.67;;;;;;;;;;5052012;28;20127;-53
2022/01/05 09:37:09;;;;;;;3.00;1.73;;;;;;;;;;5052326;28;20036;-54
2022/01/05 09:42:19;;;;;;;1.80;1.00;;;;;;;;;;5052179;28;20110;-53
2022/01/05 09:44:48;;;;;;;2.85;1.55;;;;;;;;;;5051862;28;20475;-53
2022/01/05 09:47:32;;;;;;;6.13;1.75;;;;;;;;;;5052305;28;20036;-53
2022/01/05 09:50:00;;;;;;;3.47;2.38;;;;;;;;;;5051363;28;20490;-53
2022/01/05 09:52:26;;;;;;;2.38;1.33;;;;;;;;;;5051872;28;20026;-55
2022/01/05 09:54:53;;;;;;;2.53;1.67;;;;;;;;;;5051937;28;20398;-51
2022/01/05 09:57:21;;;;;;;4.82;1.95;;;;;;;;;;5051884;28;20021;-53
2022/01/05 09:59:48;;;;;;;4.97;1.45;;;;;;;;;;5051397;28;20039;-55
2022/01/05 10:02:16;;;;;;;2.28;1.25;;;;;;;;;;5043013;28;20025;-51
2022/01/05 10:04:42;;;;;;;5.87;1.60;;;;;;;;;;5032163;28;20045;-50
2022/01/05 10:07:11;;;;;;;5.40;1.88;;;;;;;;;;5032156;28;20107;-55
2022/01/05 10:09:38;;;;;;;7.40;1.60;;;;;;;;;;5031663;28;20057;-54
2022/01/05 10:12:04;;;;;;;2.43;0.93;;;;;;;;;;5039501;28;20040;-51
2022/01/05 10:14:31;;;;;;;3.30;1.75;;;;;;;;;;5051730;28;20033;-54
2022/01/05 10:17:17;;;;;;;2.27;1.10;;;;;;;;;;5051807;28;20075;-52
2022/01/05 10:19:45;;;;;;;2.35;1.30;;;;;;;;;;5051282;28;20033;-55
2022/01/05 10:22:34;;;;;;;5.73;1.63;;;;;;;;;;5051470;28;20029;-54
2022/01/05 10:25:01;;;;;;;2.70;1.10;;;;;;;;;;5051928;28;20040;-54
2022/01/05 10:27:28;;;;;;;3.77;2.03;;;;;;;;;;5053075;28;20028;-49
2022/01/05 10:29:56;;;;;;;1.47;0.70;;;;;;;;;;5054756;28;20021;-53
2022/01/05 10:32:23;;;;;;;5.00;0.93;;;;;;;;;;5055329;28;20036;-51
2022/01/05 10:35:07;;;;;;;6.30;1.87;;;;;;;;;;5055381;28;20072;-53
2022/01/05 10:37:33;;;;;;;6.67;1.37;;;;;;;;;;5055905;28;20500;-51
2022/01/05 10:40:10;;;;;;;9.10;1.97;;;;;;;;;;5054976;28;20125;-53
2022/01/05 10:42:37;;;;;;;3.23;0.90;;;;;;;;;;5055505;28;20059;-52
2022/01/05 10:45:05;;;;;;;5.50;1.37;;;;;;;;;;5055176;28;20117;-56
2022/01/05 10:47:31;;;;;;;11.67;2.10;;;;;;;;;;5052739;28;20394;-56
2022/01/05 10:49:57;;;;;;;6.00;1.57;;;;;;;;;;5054900;28;20044;-56
2022/01/05 10:52:26;;;;;;;3.83;1.23;;;;;;;;;;5054980;28;20040;-53
2022/01/05 10:54:53;;;;;;;6.27;1.33;;;;;;;;;;5055280;28;20071;-53
2022/01/05 10:57:20;;;;;;;2.30;0.83;;;;;;;;;;5055034;28;20029;-55
2022/01/05 10:59:47;;;;;;;3.93;0.77;;;;;;;;;;5054187;28;20031;-56
2022/01/05 11:02:30;;;;;;;3.07;1.97;;;;;;;;;;5045846;28;20057;-56
2022/01/05 11:05:11;;;;;;;3.78;1.42;;;;;;;;;;5035103;28;20029;-54
2022/01/05 11:07:39;;;;;;;3.30;1.70;;;;;;;;;;5035020;28;20097;-56
2022/01/05 11:10:12;;;;;;;3.57;1.50;;;;;;;;;;5034171;28;20030;-55
2022/01/05 11:12:42;;;;;;;2.33;1.17;;;;;;;;;;5047061;28;20036;-55
2022/01/05 11:15:28;;;;;;;2.53;0.75;;;;;;;;;;5054725;28;20127;-54
2022/01/05 11:18:12;;;;;;;1.73;1.00;;;;;;;;;;5053985;28;20068;-54
2022/01/05 11:21:07;;;;;;;3.93;1.27;;;;;;;;;;5054459;28;20110;-56
2022/01/05 11:23:33;;;;;;;1.07;0.70;;;;;;;;;;5054042;28;20041;-56
2022/01/05 11:26:00;;;;;;;5.00;2.10;;;;;;;;;;5054700;28;20029;-56
2022/01/05 11:28:27;;;;;;;4.63;1.02;;;;;;;;;;5054471;28;20027;-55
2022/01/05 11:30:54;;;;;;;4.07;1.57;;;;;;;;;;5054194;28;20029;-55
2022/01/05 11:33:21;;;;;;;3.40;1.42;;;;;;;;;;5054623;28;20025;-52
2022/01/05 11:35:47;;;;;;;4.80;1.90;;;;;;;;;;5054672;28;20024;-55
2022/01/05 11:38:13;;;;;;;4.13;2.03;;;;;;;;;;5053492;28;20021;-53
2022/01/05 11:40:41;;;;;;;7.35;1.02;;;;;;;;;;5053841;28;20482;-56
2022/01/05 11:43:09;;;;;;;4.77;1.40;;;;;;;;;;5054050;28;20092;-54
2022/01/05 11:45:36;;;;;;;2.97;1.47;;;;;;;;;;5053830;28;20025;-56
2022/01/05 11:48:21;;;;;;;3.13;1.15;;;;;;;;;;5053495;28;20104;-53
2022/01/05 11:50:48;;;;;;;1.58;1.17;;;;;;;;;;5054163;28;20013;-53
2022/01/05 11:53:15;;;;;;;7.85;1.40;;;;;;;;;;5053936;28;20029;-54
2022/01/05 11:55:59;;;;;;;6.50;1.48;;;;;;;;;;5054008;28;20416;-54
2022/01/05 11:58:29;;;;;;;3.35;1.58;;;;;;;;;;5053230;28;20379;-53
2022/01/05 12:01:18;;;;;;;10.70;1.88;;;;;;;;;;5053885;28;20025;-52
2022/01/05 12:03:50;;;;;;;2.03;0.98;;;;;;;;;;5033053;28;20041;-54
2022/01/05 12:06:17;;;;;;;2.22;0.82;;;;;;;;;;5033796;28;20033;-55
2022/01/05 12:08:43;;;;;;;1.85;1.20;;;;;;;;;;5033417;28;20061;-51
2022/01/05 12:11:29;;;;;;;3.47;1.83;;;;;;;;;;5034020;28;20120;-55
2022/01/05 12:13:55;;;;;;;4.47;1.88;;;;;;;;;;5033759;28;20410;-55
2022/01/05 12:16:22;;;;;;;8.45;2.08;;;;;;;;;;5033457;28;20340;-56
2022/01/05 12:19:11;;;;;;;3.08;1.42;;;;;;;;;;5032788;28;20060;-54
2022/01/05 12:21:41;;;;;;;3.72;1.17;;;;;;;;;;5033543;28;20037;-55
2022/01/05 12:24:07;;;;;;;;;;;;;;;;;;5033942;28;20029;-56
2022/01/05 12:26:33;;;;;;;4.50;1.20;;;;;;;;;;5033393;28;19927;-55
2022/01/05 12:28:59;;;;;;;4.85;0.88;;;;;;;;;;5032874;28;20390;-56
2022/01/05 12:31:44;;;;;;;9.90;2.05;;;;;;;;;;5033173;28;20040;-56
2022/01/05 12:34:10;;;;;;;4.80;0.93;;;;;;;;;;5033489;28;20038;-56
2022/01/05 12:36:38;;;;;;;3.28;1.02;;;;;;;;;;5031922;28;20026;-53
2022/01/05 12:39:07;;;;;;;1.48;0.88;;;;;;;;;;5032699;28;20056;-56
2022/01/05 12:41:38;;;;;;;1.70;1.10;;;;;;;;;;5033164;28;20138;-56
2022/01/05 12:44:04;;;;;;;;;;;;;;;;;;5033570;28;20116;-53
2022/01/05 12:46:36;;;;;;;11.32;1.17;;;;;;;;;;5033271;28;20323;-55
2022/01/05 12:49:04;;;;;;;4.15;1.80;;;;;;;;;;5032279;28;20040;-55
2022/01/05 12:51:31;;;;;;;7.83;2.00;;;;;;;;;;5032354;28;20041;-55
2022/01/05 12:54:01;;;;;;;6.78;2.67;;;;;;;;;;5032963;28;20112;-51
2022/01/05 12:56:30;;;;;;;5.60;1.27;;;;;;;;;;5033327;28;20041;-51
2022/01/05 12:58:57;;;;;;;1.90;1.10;;;;;;;;;;5032399;28;20375;-53
2022/01/05 13:01:23;;;;;;;4.78;1.60;;;;;;;;;;5034949;28;20029;-52
2022/01/05 13:03:49;;;;;;;4.60;1.13;;;;;;;;;;5032571;28;20027;-52
2022/01/05 13:06:20;;;;;;;6.70;1.37;;;;;;;;;;5032920;28;20029;-53
2022/01/05 13:08:47;;;;;;;1.90;0.82;;;;;;;;;;5032057;28;20052;-53
2022/01/05 13:11:13;;;;;;;1.50;0.90;;;;;;;;;;5033121;28;20370;-50
2022/01/05 13:13:42;;;;;;;3.27;0.80;;;;;;;;;;5052624;28;20033;-53
2022/01/05 13:16:08;;;;;;;2.70;1.38;;;;;;;;;;5052686;28;20037;-55
2022/01/05 13:18:34;;;;;;;4.88;1.85;;;;;;;;;;5051721;28;20021;-54
2022/01/05 13:21:00;;;;;;;3.87;1.63;;;;;;;;;;5052486;28;20081;-52
2022/01/05 13:23:26;;;;;;;3.03;1.57;;;;;;;;;;5052200;28;20021;-51
2022/01/05 13:25:52;;;;;;;4.28;1.92;;;;;;;;;;5052604;28;20025;-54
2022/01/05 13:28:20;;;;;;;2.50;1.00;;;;;;;;;;5051810;28;20108;-56
2022/01/05 13:30:46;;;;;;;3.40;0.93;;;;;;;;;;5052293;28;20056;-52
2022/01/05 13:33:15;;;;;;;2.22;0.75;;;;;;;;;;5052040;28;20041;-53
2022/01/05 13:35:41;;;;;;;7.40;2.00;;;;;;;;;;5052199;28;20044;-51
2022/01/05 13:38:07;;;;;;;7.50;1.80;;;;;;;;;;5051325;28;20036;-51
2022/01/05 13:40:35;;;;;;;3.60;1.33;;;;;;;;;;5052300;28;20033;-52
2022/01/05 13:43:05;;;;;;;1.63;0.83;;;;;;;;;;5052302;28;20029;-50
2022/01/05 13:45:36;;;;;;;1.83;0.80;;;;;;;;;;5052535;28;20467;-50
2022/01/05 13:48:02;;;;;;;5.72;1.77;;;;;;;;;;5051469;28;20108;-54
2022/01/05 13:50:38;;;;;;;5.88;1.85;;;;;;;;;;5051831;28;20168;-53
2022/01/05 13:53:05;;;;;;;3.47;1.58;;;;;;;;;;5051857;28;20426;-51
2022/01/05 13:55:37;;;;;;;3.75;1.00;;;;;;;;;;5051900;28;20021;-50
2022/01/05 13:58:05;;;;;;;3.70;1.42;;;;;;;;;;5051096;28;20028;-56
2022/01/05 14:00:31;;;;;;;3.67;1.48;;;;;;;;;;5051801;28;20025;-55
2022/01/05 14:02:57;;;;;;;1.67;0.67;;;;;;;;;;5039177;28;20044;-51
2022/01/05 14:05:23;;;;;;;3.65;1.23;;;;;;;;;;5036276;28;20030;-52
2022/01/05 14:08:01;;;;;;;6.63;1.13;;;;;;;;;;5035887;28;20053;-53
2022/01/05 14:10:27;;;;;;;0.85;0.68;;;;;;;;;;5036224;28;20386;-52
2022/01/05 14:12:59;;;;;;;3.33;1.53;;;;;;;;;;5049873;28;20025;-56
2022/01/05 14:15:26;;;;;;;5.07;1.80;;;;;;;;;;5055858;28;20071;-55
2022/01/05 14:18:04;;;;;;;8.75;1.67;;;;;;;;;;5055248;28;20103;-55
2022/01/05 14:20:31;;;;;;;2.30;0.90;;;;;;;;;;5055903;28;20098;-55
2022/01/05 14:23:01;;;;;;;3.58;1.27;;;;;;;;;;5055711;28;20108;-56
2022/01/05 14:25:36;;;;;;;1.20;0.68;;;;;;;;;;5055767;28;20660;-54
2022/01/05 14:28:12;;;;;;;3.20;0.90;;;;;;;;;;5054765;28;20032;-54
2022/01/05 14:30:38;;;;;;;4.68;1.65;;;;;;;;;;5055855;28;20032;-53
2022/01/05 14:33:05;;;;;;;1.17;0.60;;;;;;;;;;5055504;28;20306;-49
2022/01/05 14:35:31;;;;;;;5.60;0.95;;;;;;;;;;5055666;28;20079;-54
2022/01/05 14:38:02;;;;;;;4.53;1.27;;;;;;;;;;5054845;28;20025;-53
2022/01/05 14:40:29;;;;;;;3.10;1.55;;;;;;;;;;5055238;28;20025;-53
2022/01/05 14:42:59;;;;;;;5.18;1.35;;;;;;;;;;5055390;28;20403;-53
2022/01/05 14:45:26;;;;;;;2.95;1.73;;;;;;;;;;5055481;28;20021;-53
2022/01/05 14:47:52;;;;;;;1.60;1.27;;;;;;;;;;5054714;28;20401;-55